Time;durP1;ratioP1;P1;durP2;ratioP2;P2;SDS_P1;SDS_P2;PMS_P1;PMS_P2;Temp;Humidity;BMP_temperature;BMP_pressure;BME280_temperature;BME280_humidity;BME280_pressure;Samples;Min_cycle;Max_cycle;Signal;HPM_P1;HPM_P2
2022/06/17 00:01:09;;;;;;;;;;;22.20;77.70;;;;;;4956532;29;19953;-96
2022/06/17 00:03:35;;;;;;;;;;;22.30;77.80;;;;;;4956452;29;20022;-95
2022/06/17 00:06:04;;;;;;;;;;;22.30;77.50;;;;;;4971190;29;20012;-96
2022/06/17 00:08:37;;;;;;;;;;;22.30;78.60;;;;;;4956562;29;19981;-96
2022/06/17 00:11:15;;;;;;;;;;;22.30;78.50;;;;;;4956780;29;20015;-96
2022/06/17 00:13:42;;;;;;;;;;;22.30;78.70;;;;;;4956906;29;19991;-96
2022/06/17 00:16:11;;;;;;;;;;;22.30;78.60;;;;;;4953387;29;20046;-96
2022/06/17 00:18:37;;;;;;;;;;;22.10;78.90;;;;;;4952912;29;19951;-96
2022/06/17 00:21:06;;;;;;;;;;;22.00;79.20;;;;;;4970379;29;19948;-96
2022/06/17 00:23:32;;;;;;;;;;;21.90;79.20;;;;;;4954091;29;19984;-96
2022/06/17 00:25:58;;;;;;;;;;;21.80;79.30;;;;;;4954780;29;19961;-96
2022/06/17 00:28:25;;;;;;;;;;;21.80;80.00;;;;;;4973439;29;19999;-96
2022/06/17 00:30:51;;;;;;;;;;;21.60;80.30;;;;;;4973161;29;19948;-96
2022/06/17 00:33:20;;;;;;;;;;;21.50;80.30;;;;;;4957348;29;19958;-96
2022/06/17 00:35:53;;;;;;;;;;;21.50;80.20;;;;;;4957336;29;19949;-96
2022/06/17 00:38:21;;;;;;;;;;;21.50;79.80;;;;;;4956467;29;19956;-96
2022/06/17 00:40:51;;;;;;;;;;;21.60;79.60;;;;;;4956872;29;19952;-96
2022/06/17 00:43:25;;;;;;;;;;;21.70;79.90;;;;;;4955994;29;19965;-96
2022/06/17 00:46:06;;;;;;;;;;;21.80;80.30;;;;;;4956667;29;19947;-96
2022/06/17 00:48:39;;;;;;;;;;;21.80;80.40;;;;;;4957284;29;20002;-96
2022/06/17 00:51:20;;;;;;;;;;;21.80;80.40;;;;;;4956342;29;19948;-96
2022/06/17 00:53:51;;;;;;;;;;;21.60;80.20;;;;;;4952591;29;19948;-96
2022/06/17 00:56:21;;;;;;;;;;;21.40;80.30;;;;;;4963135;29;19988;-96
2022/06/17 00:58:56;;;;;;;;;;;21.30;81.10;;;;;;4953867;29;19946;-96
2022/06/17 01:01:23;;;;;;;;;;;21.30;81.20;;;;;;4954003;29;19957;-96
2022/06/17 01:03:51;;;;;;;;;;;21.40;81.10;;;;;;4954375;29;19944;-96
2022/06/17 01:06:20;;;;;;;;;;;21.50;80.90;;;;;;4955285;29;19969;-96
2022/06/17 01:11:52;;;;;;;;;;;21.70;80.70;;;;;;4955500;29;19962;-96
2022/06/17 01:14:21;;;;;;;;;;;21.60;81.10;;;;;;4955017;29;19941;-96
2022/06/17 01:16:48;;;;;;;;;;;21.50;81.00;;;;;;4953688;29;19994;-96
2022/06/17 01:19:50;;;;;;;;;;;21.30;81.50;;;;;;4953405;29;19949;-96
2022/06/17 01:22:16;;;;;;;;;;;21.30;81.80;;;;;;4898438;29;19985;-96
2022/06/17 01:24:43;;;;;;;;;;;21.30;81.60;;;;;;4939886;29;19957;-96
2022/06/17 01:27:09;;;;;;;;;;;21.30;82.10;;;;;;4952108;29;20023;-96
2022/06/17 01:29:35;;;;;;;;;;;21.40;82.40;;;;;;4956489;29;19945;-96
2022/06/17 01:32:07;;;;;;;;;;;21.40;82.40;;;;;;4972453;29;19993;-96
2022/06/17 01:34:33;;;;;;;;;;;21.30;82.10;;;;;;4971547;29;19951;-96
2022/06/17 01:37:01;;;;;;;;;;;21.10;82.40;;;;;;4957737;29;19966;-96
2022/06/17 01:39:30;;;;;;;;;;;21.20;82.70;;;;;;4957134;29;19998;-97
2022/06/17 01:41:56;;;;;;;;;;;21.20;82.60;;;;;;4954731;29;19981;-96
2022/06/17 01:44:25;;;;;;;;;;;21.20;82.60;;;;;;4948506;29;20309;-96
2022/06/17 01:46:54;;;;;;;;;;;21.30;81.90;;;;;;4949414;29;19945;-96
2022/06/17 01:49:22;;;;;;;;;;;21.40;81.60;;;;;;4949188;29;19949;-96
2022/06/17 01:51:51;;;;;;;;;;;21.50;81.60;;;;;;4948056;29;20011;-96
2022/06/17 01:54:20;;;;;;;;;;;21.50;81.50;;;;;;4950190;29;19984;-96
2022/06/17 01:56:48;;;;;;;;;;;21.20;81.60;;;;;;4952840;29;20010;-96
2022/06/17 01:59:15;;;;;;;;;;;20.80;82.20;;;;;;4934861;29;19957;-96
2022/06/17 02:01:43;;;;;;;;;;;20.60;83.00;;;;;;4951085;29;19981;-96
2022/06/17 02:04:13;;;;;;;;;;;20.40;84.10;;;;;;4935149;29;19949;-96
2022/06/17 02:06:46;;;;;;;;;;;20.40;84.60;;;;;;4936037;29;19955;-96
2022/06/17 02:09:13;;;;;;;;;;;20.40;85.10;;;;;;4953797;29;19943;-96
2022/06/17 02:11:38;;;;;;;;;;;20.30;85.20;;;;;;4936391;29;19975;-96
2022/06/17 02:14:07;;;;;;;;;;;20.40;85.20;;;;;;4954171;29;19945;-96
2022/06/17 02:16:35;;;;;;;;;;;20.40;85.10;;;;;;4953387;29;20054;-96
2022/06/17 02:19:01;;;;;;;;;;;20.40;84.90;;;;;;4935330;29;19943;-96
2022/06/17 02:21:29;;;;;;;;;;;20.50;84.90;;;;;;4950448;29;19975;-96
2022/06/17 02:23:55;;;;;;;;;;;20.60;84.80;;;;;;4935574;29;20031;-96
2022/06/17 02:26:22;;;;;;;;;;;20.60;84.60;;;;;;4935145;29;19960;-96
2022/06/17 02:28:49;;;;;;;;;;;20.60;84.70;;;;;;4934797;29;19948;-96
2022/06/17 02:31:15;;;;;;;;;;;20.70;84.80;;;;;;4951114;29;19982;-96
2022/06/17 02:33:41;;;;;;;;;;;20.80;84.40;;;;;;4934587;29;19955;-96
2022/06/17 02:36:14;;;;;;;;;;;20.80;84.10;;;;;;4948843;29;19967;-96
2022/06/17 02:38:41;;;;;;;;;;;20.80;84.00;;;;;;4930720;29;19957;-96
2022/06/17 02:41:10;;;;;;;;;;;20.80;83.50;;;;;;4947989;29;19990;-96
2022/06/17 02:43:44;;;;;;;;;;;20.80;83.40;;;;;;4948851;29;20405;-96
2022/06/17 02:46:18;;;;;;;;;;;20.80;83.60;;;;;;4932753;29;19946;-96
2022/06/17 02:48:49;;;;;;;;;;;20.70;84.00;;;;;;4933542;29;19949;-96
2022/06/17 02:51:15;;;;;;;;;;;20.50;83.80;;;;;;4934134;29;20042;-96
2022/06/17 02:53:42;;;;;;;;;;;20.30;84.60;;;;;;4934192;29;19943;-96
2022/06/17 02:56:11;;;;;;;;;;;20.30;84.90;;;;;;4947447;29;19979;-96
2022/06/17 02:58:52;;;;;;;;;;;20.40;85.10;;;;;;4950436;29;19982;-96
2022/06/17 03:01:23;;;;;;;;;;;20.50;84.80;;;;;;4945631;29;19942;-95
2022/06/17 03:03:49;;;;;;;;;;;20.60;84.80;;;;;;4941399;29;19974;-96
2022/06/17 03:06:17;;;;;;;;;;;20.60;84.80;;;;;;4945120;29;19943;-95
2022/06/17 03:08:46;;;;;;;;;;;20.60;84.50;;;;;;4944328;29;19945;-96
2022/06/17 03:11:12;;;;;;;;;;;20.50;84.50;;;;;;4960380;29;19951;-96
2022/06/17 03:13:41;;;;;;;;;;;20.50;84.50;;;;;;4960054;29;20392;-96
2022/06/17 03:16:09;;;;;;;;;;;20.40;84.70;;;;;;4941780;29;20278;-96
2022/06/17 03:18:35;;;;;;;;;;;20.40;84.90;;;;;;4940031;29;19951;-96
2022/06/17 03:21:01;;;;;;;;;;;20.40;84.50;;;;;;4940526;29;19945;-96
2022/06/17 03:23:33;;;;;;;;;;;20.40;84.70;;;;;;4957111;29;20028;-96
2022/06/17 03:26:06;;;;;;;;;;;20.30;84.70;;;;;;4947191;29;20010;-96
2022/06/17 03:28:38;;;;;;;;;;;20.10;84.50;;;;;;4946062;29;20004;-96
2022/06/17 03:31:09;;;;;;;;;;;20.00;85.40;;;;;;4946886;29;19946;-96
2022/06/17 03:33:45;;;;;;;;;;;20.00;86.20;;;;;;4946823;29;20038;-96
2022/06/17 03:36:14;;;;;;;;;;;20.20;86.20;;;;;;4946770;29;19957;-96
2022/06/17 03:38:41;;;;;;;;;;;20.30;86.10;;;;;;4948457;29;19973;-96
2022/06/17 03:41:16;;;;;;;;;;;20.30;86.00;;;;;;4948023;29;20413;-95
2022/06/17 03:43:48;;;;;;;;;;;20.30;85.70;;;;;;4947059;29;19944;-96
2022/06/17 03:46:14;;;;;;;;;;;20.30;85.40;;;;;;4946048;29;20040;-96
2022/06/17 03:48:47;;;;;;;;;;;20.40;84.80;;;;;;4943963;29;19990;-96
2022/06/17 03:51:17;;;;;;;;;;;20.50;85.20;;;;;;4944225;29;19949;-96
2022/06/17 03:53:44;;;;;;;;;;;20.50;85.10;;;;;;4946164;29;20015;-96
2022/06/17 03:56:13;;;;;;;;;;;20.60;85.10;;;;;;4945958;29;19984;-96
2022/06/17 03:58:39;;;;;;;;;;;20.70;84.90;;;;;;4947252;29;19953;-96
2022/06/17 04:01:14;;;;;;;;;;;20.60;85.20;;;;;;4947297;29;19955;-96
2022/06/17 04:03:41;;;;;;;;;;;20.60;85.20;;;;;;4947791;29;20004;-96
2022/06/17 04:06:12;;;;;;;;;;;20.70;85.30;;;;;;4946256;29;20020;-96
2022/06/17 04:08:53;;;;;;;;;;;20.60;85.10;;;;;;4955637;29;19946;-96
2022/06/17 04:11:19;;;;;;;;;;;20.60;84.90;;;;;;4939752;29;19952;-95
2022/06/17 04:13:45;;;;;;;;;;;20.60;85.00;;;;;;4940338;29;19968;-95
2022/06/17 04:16:29;;;;;;;;;;;20.50;85.30;;;;;;4940182;29;20040;-96
2022/06/17 04:19:02;;;;;;;;;;;20.50;85.40;;;;;;4940543;29;20395;-96
2022/06/17 04:21:27;;;;;;;;;;;20.40;85.80;;;;;;4943806;29;20316;-96
2022/06/17 04:23:53;;;;;;;;;;;20.40;86.20;;;;;;4942026;29;19975;-96
2022/06/17 04:26:25;;;;;;;;;;;20.50;86.40;;;;;;4942431;29;20024;-96
2022/06/17 04:28:54;;;;;;;;;;;20.60;86.40;;;;;;4957698;29;19947;-96
2022/06/17 04:31:21;;;;;;;;;;;20.60;86.40;;;;;;4940653;29;19950;-96
2022/06/17 04:33:54;;;;;;;;;;;20.70;86.30;;;;;;4940014;29;19976;-96
2022/06/17 04:36:40;;;;;;;;;;;20.70;86.00;;;;;;4939308;29;20033;-96
2022/06/17 04:39:24;;;;;;;;;;;20.70;86.00;;;;;;4939349;29;19949;-96
2022/06/17 04:41:51;;;;;;;;;;;20.80;86.00;;;;;;4938254;29;19942;-96
2022/06/17 04:44:17;;;;;;;;;;;20.80;86.00;;;;;;4938581;29;19989;-96
2022/06/17 04:46:46;;;;;;;;;;;20.80;86.20;;;;;;4937985;29;20352;-96
2022/06/17 04:49:20;;;;;;;;;;;20.90;86.30;;;;;;4938437;29;20386;-96
2022/06/17 04:51:46;;;;;;;;;;;20.90;86.50;;;;;;4937988;29;19947;-96
2022/06/17 04:54:12;;;;;;;;;;;21.00;86.60;;;;;;4953040;29;19954;-96
2022/06/17 04:56:46;;;;;;;;;;;21.20;86.40;;;;;;4938888;29;19968;-96
2022/06/17 04:59:32;;;;;;;;;;;21.30;85.90;;;;;;4938972;29;19971;-95
2022/06/17 05:01:58;;;;;;;;;;;21.40;85.70;;;;;;4920884;29;19951;-96
2022/06/17 05:04:24;;;;;;;;;;;21.50;85.90;;;;;;4919737;29;19943;-95
2022/06/17 05:06:49;;;;;;;;;;;21.70;85.60;;;;;;4937369;29;19953;-96
2022/06/17 05:09:15;;;;;;;;;;;21.70;85.10;;;;;;4937189;29;19950;-96
2022/06/17 05:11:44;;;;;;;;;;;21.80;85.00;;;;;;4936918;29;19949;-96
2022/06/17 05:14:29;;;;;;;;;;;22.00;84.80;;;;;;4920448;29;20034;-96
2022/06/17 05:16:56;;;;;;;;;;;22.20;84.20;;;;;;4897525;29;19967;-94
2022/06/17 05:19:22;;;;;;;;;;;22.30;84.00;;;;;;4919435;29;19949;-96
2022/06/17 05:21:48;;;;;;;;;;;22.60;84.10;;;;;;4936641;29;20515;-96
2022/06/17 05:24:13;;;;;;;;;;;22.70;84.10;;;;;;4936875;29;19944;-96
2022/06/17 05:26:39;;;;;;;;;;;22.80;83.40;;;;;;4936354;29;19978;-96
2022/06/17 05:29:08;;;;;;;;;;;22.80;83.10;;;;;;4936392;29;20393;-96
2022/06/17 05:31:35;;;;;;;;;;;22.90;83.10;;;;;;4937588;29;19937;-96
2022/06/17 05:34:02;;;;;;;;;;;22.90;83.20;;;;;;4936771;29;20038;-96
2022/06/17 05:36:27;;;;;;;;;;;23.00;83.10;;;;;;4936840;29;20018;-96
2022/06/17 05:38:53;;;;;;;;;;;23.20;81.80;;;;;;4937071;29;19949;-96
2022/06/17 05:41:20;;;;;;;;;;;23.30;81.10;;;;;;4919414;29;20040;-96
2022/06/17 05:43:46;;;;;;;;;;;23.40;80.80;;;;;;4919414;29;19952;-96
2022/06/17 05:46:12;;;;;;;;;;;23.50;80.40;;;;;;4936450;29;20018;-96
2022/06/17 05:48:38;;;;;;;;;;;23.70;80.10;;;;;;4936385;29;19985;-95
2022/06/17 05:51:04;;;;;;;;;;;23.80;79.90;;;;;;4920393;29;20019;-96
2022/06/17 05:53:29;;;;;;;;;;;23.80;79.50;;;;;;4919072;29;20431;-96
2022/06/17 05:55:56;;;;;;;;;;;24.00;78.60;;;;;;4962893;23;19993;-96
2022/06/17 05:58:22;;;;;;;;;;;24.00;78.40;;;;;;4949954;29;19948;-96
2022/06/17 06:00:48;;;;;;;;;;;24.20;78.40;;;;;;4955580;29;19996;-96
2022/06/17 06:03:18;;;;;;;;;;;24.30;77.90;;;;;;4955201;29;19945;-94
2022/06/17 06:05:44;;;;;;;;;;;24.40;76.90;;;;;;4955407;29;19959;-93
2022/06/17 06:08:09;;;;;;;;;;;24.50;75.60;;;;;;4955411;29;19939;-95
2022/06/17 06:10:35;;;;;;;;;;;24.60;74.30;;;;;;4955405;29;19948;-94
2022/06/17 06:13:03;;;;;;;;;;;24.70;73.90;;;;;;4955407;29;19951;-94
2022/06/17 06:15:33;;;;;;;;;;;24.70;74.00;;;;;;4955530;28;20041;-95
2022/06/17 06:17:59;;;;;;;;;;;24.80;73.10;;;;;;4958993;29;20363;-95
2022/06/17 06:20:25;;;;;;;;;;;25.00;71.40;;;;;;4958615;29;19937;-94
2022/06/17 06:22:51;;;;;;;;;;;25.10;71.30;;;;;;4958258;29;19986;-94
2022/06/17 06:25:17;;;;;;;;;;;25.20;71.90;;;;;;4958753;28;20452;-93
2022/06/17 06:27:43;;;;;;;;;;;25.40;71.80;;;;;;4958579;29;19989;-94
2022/06/17 06:30:22;;;;;;;;;;;25.50;73.70;;;;;;4958707;29;19999;-93
2022/06/17 06:32:49;;;;;;;;;;;25.60;72.20;;;;;;4958516;29;19969;-95
2022/06/17 06:35:15;;;;;;;;;;;25.70;71.70;;;;;;4958768;29;19949;-93
2022/06/17 06:37:40;;;;;;;;;;;25.70;69.80;;;;;;4958223;29;20313;-95
2022/06/17 06:40:06;;;;;;;;;;;25.80;69.60;;;;;;4958328;29;19961;-94
2022/06/17 06:42:32;;;;;;;;;;;25.80;69.50;;;;;;4958193;29;19939;-95
2022/06/17 06:44:57;;;;;;;;;;;25.80;69.40;;;;;;4957849;29;19944;-94
2022/06/17 06:47:23;;;;;;;;;;;25.90;69.00;;;;;;4957314;29;19968;-95
2022/06/17 06:49:48;;;;;;;;;;;25.90;68.90;;;;;;4958024;29;19939;-95
2022/06/17 06:52:14;;;;;;;;;;;26.00;68.50;;;;;;4958108;29;19946;-94
2022/06/17 06:54:39;;;;;;;;;;;26.00;67.80;;;;;;4957818;28;19981;-96
2022/06/17 06:57:05;;;;;;;;;;;26.10;68.30;;;;;;4958281;29;19960;-93
2022/06/17 06:59:30;;;;;;;;;;;26.20;67.40;;;;;;4958170;29;19944;-95
2022/06/17 07:01:56;;;;;;;;;;;26.20;67.80;;;;;;4957710;29;19991;-94
2022/06/17 07:04:21;;;;;;;;;;;26.30;68.10;;;;;;4957294;29;19990;-95
2022/06/17 07:06:47;;;;;;;;;;;26.40;67.40;;;;;;4957527;29;19947;-96
2022/06/17 07:09:12;;;;;;;;;;;26.40;66.70;;;;;;4940486;29;19991;-94
2022/06/17 07:11:38;;;;;;;;;;;26.50;64.20;;;;;;4957766;29;19947;-94
2022/06/17 07:14:04;;;;;;;;;;;26.60;65.00;;;;;;4957697;29;19965;-94
2022/06/17 07:16:29;;;;;;;;;;;26.60;63.90;;;;;;4957675;29;20057;-95
2022/06/17 07:18:55;;;;;;;;;;;26.70;64.50;;;;;;4958003;29;20042;-95
2022/06/17 07:21:20;;;;;;;;;;;26.90;64.10;;;;;;4957555;29;19940;-93
2022/06/17 07:23:46;;;;;;;;;;;27.00;63.50;;;;;;4957556;29;19945;-95
2022/06/17 07:26:16;;;;;;;;;;;27.10;62.70;;;;;;4956975;28;19966;-95
2022/06/17 07:28:41;;;;;;;;;;;27.20;62.40;;;;;;4956694;29;19951;-94
2022/06/17 07:31:07;;;;;;;;;;;27.30;61.90;;;;;;4957385;29;19946;-93
2022/06/17 07:33:34;;;;;;;;;;;27.40;61.10;;;;;;4957526;29;19948;-95
2022/06/17 07:36:01;;;;;;;;;;;27.40;59.60;;;;;;4939961;29;19951;-94
2022/06/17 07:41:15;;;;;;;;;;;27.50;62.30;;;;;;4957587;29;19964;-95
2022/06/17 07:43:41;;;;;;;;;;;27.60;62.10;;;;;;4957444;29;19951;-95
2022/06/17 07:46:07;;;;;;;;;;;27.60;63.10;;;;;;4957269;29;20013;-95
2022/06/17 07:48:32;;;;;;;;;;;27.70;62.40;;;;;;4957669;29;19939;-94
2022/06/17 07:50:58;;;;;;;;;;;27.70;62.60;;;;;;4957013;29;19991;-94
2022/06/17 07:53:25;;;;;;;;;;;27.80;63.50;;;;;;4956880;29;20385;-94
2022/06/17 07:55:51;;;;;;;;;;;27.90;61.80;;;;;;4956626;28;19978;-95
2022/06/17 07:58:16;;;;;;;;;;;27.80;60.50;;;;;;4957244;29;19944;-96
2022/06/17 08:00:43;;;;;;;;;;;27.90;59.80;;;;;;4957109;29;19958;-94
2022/06/17 08:03:09;;;;;;;;;;;28.00;59.20;;;;;;4939495;29;19946;-94
2022/06/17 08:05:35;;;;;;;;;;;28.10;58.00;;;;;;4955943;29;19938;-94
2022/06/17 08:08:03;;;;;;;;;;;28.10;56.00;;;;;;4954985;29;19946;-95
2022/06/17 08:10:30;;;;;;;;;;;28.10;56.40;;;;;;4956044;29;20467;-94
2022/06/17 08:12:56;;;;;;;;;;;28.10;58.40;;;;;;4956471;29;19943;-94
2022/06/17 08:15:22;;;;;;;;;;;28.10;58.20;;;;;;4956108;29;19953;-95
2022/06/17 08:17:48;;;;;;;;;;;28.10;59.40;;;;;;4956612;29;19961;-96
2022/06/17 08:20:21;;;;;;;;;;;28.20;59.70;;;;;;4956493;29;20034;-95
2022/06/17 08:22:47;;;;;;;;;;;28.20;58.90;;;;;;4939184;29;20336;-94
2022/06/17 08:25:13;;;;;;;;;;;28.20;58.80;;;;;;4956076;28;20004;-94
2022/06/17 08:27:42;;;;;;;;;;;28.30;58.80;;;;;;4956638;29;20296;-94
2022/06/17 08:30:08;;;;;;;;;;;28.30;59.20;;;;;;4955959;29;19939;-94
2022/06/17 08:32:45;;;;;;;;;;;28.40;59.90;;;;;;4955880;29;20029;-95
2022/06/17 08:35:14;;;;;;;;;;;28.50;59.20;;;;;;4956327;29;19943;-95
2022/06/17 08:37:41;;;;;;;;;;;28.50;59.20;;;;;;4956489;28;19957;-95
2022/06/17 08:40:27;;;;;;;;;;;28.40;60.40;;;;;;4955751;29;20413;-95
2022/06/17 08:42:55;;;;;;;;;;;28.50;59.80;;;;;;4907711;29;19943;-94
2022/06/17 08:45:28;;;;;;;;;;;28.60;61.00;;;;;;4956021;29;19970;-94
2022/06/17 08:47:59;;;;;;;;;;;28.70;57.20;;;;;;4938578;29;20042;-95
2022/06/17 08:50:37;;;;;;;;;;;28.70;58.10;;;;;;4955851;29;19975;-95
2022/06/17 08:53:21;;;;;;;;;;;28.80;59.30;;;;;;4956176;29;20393;-95
2022/06/17 08:55:57;;;;;;;;;;;29.00;59.00;;;;;;4955582;28;19951;-95
2022/06/17 08:58:30;;;;;;;;;;;29.00;57.70;;;;;;4955145;29;21314;-96
2022/06/17 09:01:14;;;;;;;;;;;29.20;57.00;;;;;;4955955;29;19947;-95
2022/06/17 09:03:59;;;;;;;;;;;29.20;57.40;;;;;;4955933;29;19937;-95
2022/06/17 09:06:40;;;;;;;;;;;29.30;59.60;;;;;;4938409;29;19949;-94
2022/06/17 09:09:14;;;;;;;;;;;29.30;57.90;;;;;;4955952;29;19937;-94
2022/06/17 09:11:52;;;;;;;;;;;29.30;58.10;;;;;;4955692;29;20396;-95
2022/06/17 09:14:46;;;;;;;;;;;29.30;59.40;;;;;;4955962;29;20031;-93
2022/06/17 09:17:21;;;;;;;;;;;29.30;57.20;;;;;;4917991;29;20442;-96
2022/06/17 09:19:48;;;;;;;;;;;29.30;58.40;;;;;;4955776;29;19945;-93
2022/06/17 09:22:18;;;;;;;;;;;29.30;57.40;;;;;;4955380;29;19943;-94
2022/06/17 09:24:44;;;;;;;;;;;29.30;57.10;;;;;;4955672;29;19941;-94
2022/06/17 09:27:18;;;;;;;;;;;29.20;57.10;;;;;;4955575;28;19956;-95
2022/06/17 09:29:47;;;;;;;;;;;29.30;57.70;;;;;;4955371;29;19939;-96
2022/06/17 09:32:33;;;;;;;;;;;29.50;58.20;;;;;;4955650;29;19999;-95
2022/06/17 09:35:04;;;;;;;;;;;29.60;55.70;;;;;;4954651;29;20365;-96
2022/06/17 09:37:46;;;;;;;;;;;29.70;59.90;;;;;;4955708;29;20327;-95
2022/06/17 09:40:21;;;;;;;;;;;29.80;57.80;;;;;;4955392;29;20036;-95
2022/06/17 09:42:47;;;;;;;;;;;30.00;57.30;;;;;;4955443;29;19938;-96
2022/06/17 09:45:32;;;;;;;;;;;30.00;55.90;;;;;;4955507;29;19946;-96
2022/06/17 09:48:18;;;;;;;;;;;30.00;55.80;;;;;;4938455;29;19970;-94
2022/06/17 09:50:46;;;;;;;;;;;30.10;56.50;;;;;;4909334;29;19956;-94
2022/06/17 09:53:25;;;;;;;;;;;30.20;56.40;;;;;;4958427;29;20032;-95
2022/06/17 09:56:14;;;;;;;;;;;30.10;55.20;;;;;;4958752;28;20456;-94
2022/06/17 09:58:46;;;;;;;;;;;30.20;55.60;;;;;;4946172;29;19956;-94
2022/06/17 10:01:12;;;;;;;;;;;30.00;52.30;;;;;;4959054;29;19973;-95
2022/06/17 10:03:38;;;;;;;;;;;30.00;54.50;;;;;;4959323;29;19982;-93
2022/06/17 10:06:16;;;;;;;;;;;30.10;55.90;;;;;;4958960;29;19951;-94
2022/06/17 10:08:42;;;;;;;;;;;30.30;54.90;;;;;;4958965;29;20421;-95
2022/06/17 10:11:07;;;;;;;;;;;30.50;53.80;;;;;;4958836;29;20038;-95
2022/06/17 10:13:35;;;;;;;;;;;30.60;54.30;;;;;;4958891;29;20378;-94
2022/06/17 10:18:52;;;;;;;;;;;30.80;52.30;;;;;;4959043;29;19945;-94
2022/06/17 10:21:30;;;;;;;;;;;31.00;53.00;;;;;;4958740;29;20466;-95
2022/06/17 10:24:03;;;;;;;;;;;31.00;56.10;;;;;;4958705;29;19986;-94
2022/06/17 10:26:32;;;;;;;;;;;31.10;53.10;;;;;;4959012;28;20014;-94
2022/06/17 10:29:13;;;;;;;;;;;31.30;54.50;;;;;;4958489;29;19943;-95
2022/06/17 10:31:40;;;;;;;;;;;31.50;52.30;;;;;;4941728;29;19947;-94
2022/06/17 10:34:11;;;;;;;;;;;31.50;49.50;;;;;;4958455;29;20417;-95
2022/06/17 10:36:37;;;;;;;;;;;31.60;49.00;;;;;;4958418;29;19963;-94
2022/06/17 10:39:03;;;;;;;;;;;31.60;49.20;;;;;;4958651;29;20282;-94
2022/06/17 10:41:30;;;;;;;;;;;31.70;49.30;;;;;;4958258;29;19977;-95
2022/06/17 10:43:55;;;;;;;;;;;31.70;51.50;;;;;;4958415;29;19971;-95
2022/06/17 10:46:21;;;;;;;;;;;31.70;50.00;;;;;;4958439;29;19951;-95
2022/06/17 10:48:46;;;;;;;;;;;31.90;51.20;;;;;;4958575;29;19947;-94
2022/06/17 10:51:12;;;;;;;;;;;32.10;50.50;;;;;;4958179;29;19987;-94
2022/06/17 10:53:41;;;;;;;;;;;32.20;48.60;;;;;;4958626;29;19947;-94
2022/06/17 10:56:10;;;;;;;;;;;32.20;48.40;;;;;;4959787;28;19984;-94
2022/06/17 10:58:37;;;;;;;;;;;32.10;47.70;;;;;;4958172;29;19996;-94
2022/06/17 11:01:04;;;;;;;;;;;32.10;49.00;;;;;;4957093;28;19942;-94
2022/06/17 11:03:31;;;;;;;;;;;32.20;49.00;;;;;;4940469;29;20429;-95
2022/06/17 11:05:57;;;;;;;;;;;32.40;49.90;;;;;;4940626;29;19956;-95
2022/06/17 11:08:25;;;;;;;;;;;32.30;48.40;;;;;;4957738;29;19942;-94
2022/06/17 11:10:52;;;;;;;;;;;32.20;50.60;;;;;;4958138;29;20024;-94
2022/06/17 11:13:18;;;;;;;;;;;32.40;50.40;;;;;;4958079;29;19949;-94
2022/06/17 11:15:53;;;;;;;;;;;32.50;48.10;;;;;;4958048;29;19946;-95
2022/06/17 11:18:28;;;;;;;;;;;32.40;49.00;;;;;;4940409;29;19968;-95
2022/06/17 11:21:04;;;;;;;;;;;32.70;48.00;;;;;;4958071;29;19939;-95
2022/06/17 11:23:35;;;;;;;;;;;32.60;46.30;;;;;;4957686;29;19990;-94
2022/06/17 11:26:21;;;;;;;;;;;32.40;45.70;;;;;;4957451;28;19964;-94
2022/06/17 11:28:49;;;;;;;;;;;32.60;46.10;;;;;;4957401;29;19952;-94
2022/06/17 11:31:28;;;;;;;;;;;32.60;48.40;;;;;;4957330;29;19990;-95
2022/06/17 11:33:54;;;;;;;;;;;32.60;46.10;;;;;;4956977;29;19948;-95
2022/06/17 11:36:21;;;;;;;;;;;32.90;47.70;;;;;;4956035;29;20015;-95
2022/06/17 11:38:47;;;;;;;;;;;33.30;47.40;;;;;;4957742;29;19946;-95
2022/06/17 11:41:39;;;;;;;;;;;33.70;45.30;;;;;;4955625;29;19948;-94
2022/06/17 11:44:06;;;;;;;;;;;33.80;44.70;;;;;;4952315;29;19947;-95
2022/06/17 11:46:33;;;;;;;;;;;33.70;43.50;;;;;;4957049;29;19954;-94
2022/06/17 11:49:06;;;;;;;;;;;33.50;43.30;;;;;;4956838;29;20011;-96
2022/06/17 11:51:33;;;;;;;;;;;33.40;43.60;;;;;;4956818;29;19952;-95
2022/06/17 11:54:05;;;;;;;;;;;33.50;44.30;;;;;;4956943;29;19944;-94
2022/06/17 11:56:35;;;;;;;;;;;33.70;45.10;;;;;;4956788;29;20003;-94
2022/06/17 11:59:07;;;;;;;;;;;33.90;42.80;;;;;;4957035;29;19982;-95
2022/06/17 12:01:33;;;;;;;;;;;34.20;44.60;;;;;;4956750;29;19937;-94
2022/06/17 12:03:59;;;;;;;;;;;34.50;40.30;;;;;;4957136;29;19941;-94
2022/06/17 12:06:26;;;;;;;;;;;34.70;42.10;;;;;;4957145;29;19939;-95
2022/06/17 12:09:00;;;;;;;;;;;34.80;42.90;;;;;;4957095;29;20017;-94
2022/06/17 12:11:29;;;;;;;;;;;34.80;42.50;;;;;;4956828;29;19945;-95
2022/06/17 12:13:57;;;;;;;;;;;35.10;40.80;;;;;;4938873;29;19974;-95
2022/06/17 12:16:26;;;;;;;;;;;35.30;42.00;;;;;;4956621;29;20292;-95
2022/06/17 12:18:53;;;;;;;;;;;35.60;41.10;;;;;;4956602;29;19951;-95
2022/06/17 12:21:41;;;;;;;;;;;35.80;41.10;;;;;;4956627;29;19938;-96
2022/06/17 12:24:45;;;;;;;;;;;35.70;40.30;;;;;;4956371;29;19944;-95
2022/06/17 12:27:17;;;;;;;;;;;35.90;38.40;;;;;;4859402;29;19951;-94
2022/06/17 12:30:01;;;;;;;;;;;35.90;37.70;;;;;;4855234;29;19949;-95
2022/06/17 12:32:26;;;;;;;;;;;36.50;36.80;;;;;;4920276;29;19948;-95
2022/06/17 12:34:58;;;;;;;;;;;36.70;34.80;;;;;;4938738;29;19944;-94
2022/06/17 12:37:28;;;;;;;;;;;36.00;35.00;;;;;;4955971;29;19960;-95
2022/06/17 12:40:18;;;;;;;;;;;35.80;36.30;;;;;;4955847;29;19938;-94
2022/06/17 12:43:05;;;;;;;;;;;35.40;37.90;;;;;;4956306;29;20030;-94
2022/06/17 12:45:34;;;;;;;;;;;35.80;36.70;;;;;;4956138;29;20453;-94
2022/06/17 12:47:59;;;;;;;;;;;36.10;35.90;;;;;;4955950;29;19944;-94
2022/06/17 12:53:21;;;;;;;;;;;35.70;38.40;;;;;;4956085;29;20509;-95
2022/06/17 12:56:07;;;;;;;;;;;36.30;38.20;;;;;;4955814;28;20101;-94
2022/06/17 12:58:39;;;;;;;;;;;36.60;36.90;;;;;;4955709;29;19944;-95
2022/06/17 13:01:11;;;;;;;;;;;36.60;35.70;;;;;;4955836;29;19942;-94
2022/06/17 13:03:39;;;;;;;;;;;36.80;36.40;;;;;;4955781;29;20416;-96
2022/06/17 13:06:16;;;;;;;;;;;37.00;34.30;;;;;;4955945;29;20034;-95
2022/06/17 13:08:50;;;;;;;;;;;37.20;32.90;;;;;;4955896;29;20304;-95
2022/06/17 13:11:21;;;;;;;;;;;37.60;33.50;;;;;;4955636;29;19941;-95
2022/06/17 13:14:12;;;;;;;;;;;38.10;31.40;;;;;;4956059;29;20069;-96
2022/06/17 13:16:43;;;;;;;;;;;38.10;30.50;;;;;;4950907;29;19966;-95
2022/06/17 13:19:17;;;;;;;;;;;38.90;29.00;;;;;;4955677;29;19984;-96
2022/06/17 13:21:46;;;;;;;;;;;39.80;28.80;;;;;;4955861;29;19978;-94
2022/06/17 13:24:30;;;;;;;;;;;40.20;28.80;;;;;;4955630;28;19952;-96
2022/06/17 13:27:02;;;;;;;;;;;40.10;27.10;;;;;;4959444;29;20468;-96
2022/06/17 13:29:33;;;;;;;;;;;39.70;30.30;;;;;;4959318;29;19991;-94
2022/06/17 13:32:20;;;;;;;;;;;39.70;28.30;;;;;;4959545;29;19973;-94
2022/06/17 13:35:00;;;;;;;;;;;40.20;28.30;;;;;;4959576;29;19954;-95
2022/06/17 13:37:38;;;;;;;;;;;40.30;28.70;;;;;;4959414;29;19973;-94
2022/06/17 13:40:07;;;;;;;;;;;39.60;30.30;;;;;;4959328;29;19952;-95
2022/06/17 13:42:33;;;;;;;;;;;39.20;31.90;;;;;;4959708;29;19937;-95
2022/06/17 13:45:05;;;;;;;;;;;38.90;32.10;;;;;;4959345;29;19944;-95
2022/06/17 13:47:50;;;;;;;;;;;38.40;33.50;;;;;;4959355;29;20395;-95
2022/06/17 13:50:28;;;;;;;;;;;38.60;34.30;;;;;;4958811;29;19944;-95
2022/06/17 13:52:54;;;;;;;;;;;38.90;33.90;;;;;;4959612;29;19996;-96
2022/06/17 13:55:19;;;;;;;;;;;39.10;32.20;;;;;;4979497;23;19979;-96
2022/06/17 13:57:48;;;;;;;;;;;39.50;32.10;;;;;;4979068;28;20011;-96
2022/06/17 14:00:19;;;;;;;;;;;39.90;31.90;;;;;;4978420;28;19955;-95
2022/06/17 14:02:51;;;;;;;;;;;39.70;30.10;;;;;;4978456;28;20411;-95
2022/06/17 14:05:28;;;;;;;;;;;40.10;31.50;;;;;;4978304;28;19941;-96
2022/06/17 14:07:57;;;;;;;;;;;40.60;30.40;;;;;;4960921;28;20424;-95
2022/06/17 14:10:34;;;;;;;;;;;40.40;29.80;;;;;;4978448;28;20062;-94
2022/06/17 14:13:01;;;;;;;;;;;40.60;30.10;;;;;;4978328;28;19942;-95
2022/06/17 14:15:32;;;;;;;;;;;40.90;30.90;;;;;;4978057;28;19939;-95
2022/06/17 14:17:59;;;;;;;;;;;40.70;29.40;;;;;;4960585;28;20063;-95
2022/06/17 14:20:36;;;;;;;;;;;40.30;31.10;;;;;;4960630;28;19946;-95
2022/06/17 14:23:08;;;;;;;;;;;40.10;30.40;;;;;;4978052;28;19966;-94
2022/06/17 14:25:45;;;;;;;;;;;39.70;32.10;;;;;;4977751;28;19966;-94
2022/06/17 14:28:46;;;;;;;;;;;39.50;31.90;;;;;;4978497;28;19945;-94
2022/06/17 14:31:14;;;;;;;;;;;38.40;32.60;;;;;;4899471;29;19994;-95
2022/06/17 14:33:41;;;;;;;;;;;38.10;34.60;;;;;;4962038;28;19952;-95
2022/06/17 14:36:08;;;;;;;;;;;37.90;35.40;;;;;;4976411;28;19944;-95
2022/06/17 14:38:40;;;;;;;;;;;37.60;37.40;;;;;;4960040;28;20383;-95
2022/06/17 14:44:16;;;;;;;;;;;38.10;34.70;;;;;;4976989;28;19950;-95
2022/06/17 14:47:00;;;;;;;;;;;39.70;31.40;;;;;;4959936;28;20429;-95
2022/06/17 14:49:41;;;;;;;;;;;40.20;30.70;;;;;;4977473;28;20060;-95